Observations for Trim Patrick St
| Time | AQI | Temp °C | Hum % | Pres Pa | CO μg/m³ | H₂S μg/m³ | NO μg/m³ | NO₂ μg/m³ | O₃ μg/m³ | SO₂ μg/m³ | PM1 μg/m³ | PM2.5 μg/m³ | PM10 μg/m³ |
|---|---|---|---|---|---|---|---|---|---|---|---|---|---|
| Sunday 2 August 2026 | |||||||||||||
| 23:38 | 2 | 15.6 | 82 | 38,460 | 0.18 | 1.82 | 1.66 | 28.08 | 30.79 | 0 | 5.43 | 9.23 | 10.16 |
| 23:37 | 2 | 15.6 | 82 | 38,460 | 0.19 | 1.9 | 1.68 | 30.99 | 24.9 | 0 | 6.29 | 11.32 | 12.45 |
| 23:36 | 2 | 15.6 | 82 | 38,460 | 0.18 | 1.37 | 1.64 | 25.48 | 29.94 | 0 | 7.14 | 12.71 | 13.98 |
| 23:35 | 2 | 15.6 | 82 | 38,460 | 0.19 | 2.21 | 1.67 | 29.4 | 26.31 | 0 | 7.14 | 10.62 | 11.68 |
| 23:34 | 2 | 15.6 | 82 | 38,460 | 0.19 | 2.21 | 1.76 | 27.38 | 26.64 | 0 | 6.29 | 10.62 | 11.69 |
| 23:33 | 2 | 15.6 | 82 | 38,460 | 0.21 | 1.77 | 1.69 | 31.28 | 22.72 | 0 | 8 | 12.01 | 13.22 |
| 23:32 | 2 | 15.6 | 82 | 38,460 | 0.19 | 2 | 1.6 | 25.52 | 18.35 | 0 | 7.14 | 11.31 | 12.44 |
| 23:31 | 2 | 15.6 | 82 | 38,460 | 0.19 | 1.74 | 1.66 | 32.18 | 26.5 | 0 | 8 | 12.01 | 13.21 |
| 23:30 | 2 | 15.6 | 83 | 38,460 | 0.18 | 2.7 | 1.66 | 25.08 | 32.49 | 0 | 8 | 11.3 | 12.43 |
| 23:29 | 2 | 15.6 | 83 | 38,460 | 0.19 | 2.55 | 1.58 | 25.78 | 21.96 | 0 | 6.29 | 9.91 | 10.9 |
| 23:28 | 2 | 15.6 | 82 | 38,460 | 0.18 | 3.72 | 1.49 | 34.59 | 44.34 | 0 | 8 | 12.02 | 13.23 |
| 23:27 | 2 | 15.6 | 82 | 38,460 | 0.2 | 2.91 | 1.51 | 32.48 | 22.22 | 0 | 7.14 | 10.62 | 11.68 |
| 23:26 | 2 | 15.6 | 83 | 38,460 | 0.19 | 1.32 | 1.51 | 27 | 24.25 | 0 | 6.29 | 9.91 | 10.9 |
| 23:25 | 2 | 15.6 | 83 | 38,460 | 0.2 | 2.89 | 1.6 | 26.76 | 20 | 0 | 7.14 | 11.99 | 13.19 |
| 23:24 | 2 | 15.6 | 83 | 38,460 | 0.2 | 3.43 | 1.66 | 36.28 | 29.52 | 0 | 8.86 | 12.68 | 13.95 |
| 23:23 | 2 | 15.6 | 83 | 38,460 | 0.2 | 4.22 | 1.74 | 34.67 | 21.74 | 0 | 8 | 11.99 | 13.19 |
| 23:22 | 2 | 15.6 | 83 | 38,460 | 0.19 | 4.06 | 1.71 | 33.72 | 20.16 | 0 | 7.14 | 12.69 | 13.96 |
| 23:21 | 2 | 15.6 | 83 | 38,460 | 0.19 | 4.29 | 1.65 | 39.01 | 18.59 | 0 | 8 | 12.68 | 13.95 |
| 23:20 | 2 | 15.6 | 83 | 38,460 | 0.19 | 3.85 | 1.54 | 33.74 | 20.09 | 0 | 7.14 | 11.29 | 12.42 |
| 23:19 | 2 | 15.6 | 83 | 38,460 | 0.19 | 3.17 | 1.51 | 34.67 | 22.01 | 0 | 8 | 14.07 | 15.48 |